sensor_id;sensor_type;location;lat;lon;timestamp;temperature;humidity
12438;DHT22;6283;51.330;12.374;2023-08-07T00:00:41;14.60;1.00
12438;DHT22;6283;51.330;12.374;2023-08-07T00:03:06;14.60;1.00
12438;DHT22;6283;51.330;12.374;2023-08-07T00:05:32;14.60;1.00
12438;DHT22;6283;51.330;12.374;2023-08-07T00:07:58;14.60;1.00
12438;DHT22;6283;51.330;12.374;2023-08-07T00:10:23;14.60;1.00
12438;DHT22;6283;51.330;12.374;2023-08-07T00:12:50;14.60;1.00
12438;DHT22;6283;51.330;12.374;2023-08-07T00:15:15;14.60;1.00
12438;DHT22;6283;51.330;12.374;2023-08-07T00:17:44;14.80;1.00
12438;DHT22;6283;51.330;12.374;2023-08-07T00:20:10;14.60;1.00
12438;DHT22;6283;51.330;12.374;2023-08-07T00:22:35;14.60;1.00
12438;DHT22;6283;51.330;12.374;2023-08-07T00:25:01;14.60;1.00
12438;DHT22;6283;51.330;12.374;2023-08-07T00:27:27;14.60;1.00
12438;DHT22;6283;51.330;12.374;2023-08-07T00:29:52;14.40;1.00
12438;DHT22;6283;51.330;12.374;2023-08-07T00:32:19;14.60;1.00
12438;DHT22;6283;51.330;12.374;2023-08-07T00:34:44;14.60;1.00
12438;DHT22;6283;51.330;12.374;2023-08-07T00:37:10;14.60;1.00
12438;DHT22;6283;51.330;12.374;2023-08-07T00:39:36;14.50;1.00
12438;DHT22;6283;51.330;12.374;2023-08-07T00:42:01;14.60;1.00
12438;DHT22;6283;51.330;12.374;2023-08-07T00:44:27;14.60;1.00
12438;DHT22;6283;51.330;12.374;2023-08-07T00:46:54;14.60;1.00
12438;DHT22;6283;51.330;12.374;2023-08-07T00:49:20;14.60;1.00
12438;DHT22;6283;51.330;12.374;2023-08-07T00:51:46;14.60;1.00
12438;DHT22;6283;51.330;12.374;2023-08-07T00:54:15;14.60;1.00
12438;DHT22;6283;51.330;12.374;2023-08-07T00:56:41;14.60;1.00
12438;DHT22;6283;51.330;12.374;2023-08-07T00:59:07;14.60;1.00
12438;DHT22;6283;51.330;12.374;2023-08-07T01:01:34;14.60;1.00
12438;DHT22;6283;51.330;12.374;2023-08-07T01:04:00;14.60;1.00
12438;DHT22;6283;51.330;12.374;2023-08-07T01:06:25;14.60;1.00
12438;DHT22;6283;51.330;12.374;2023-08-07T01:08:51;14.40;1.00
12438;DHT22;6283;51.330;12.374;2023-08-07T01:12:07;14.60;1.00
12438;DHT22;6283;51.330;12.374;2023-08-07T01:17:26;14.60;1.00
12438;DHT22;6283;51.330;12.374;2023-08-07T01:19:52;14.50;1.00
12438;DHT22;6283;51.330;12.374;2023-08-07T01:22:18;14.50;1.00
12438;DHT22;6283;51.330;12.374;2023-08-07T01:24:47;14.50;1.00
12438;DHT22;6283;51.330;12.374;2023-08-07T01:32:26;14.50;1.00
12438;DHT22;6283;51.330;12.374;2023-08-07T01:34:54;14.50;1.00
12438;DHT22;6283;51.330;12.374;2023-08-07T01:37:22;14.50;1.00
12438;DHT22;6283;51.330;12.374;2023-08-07T01:39:48;14.50;1.00
12438;DHT22;6283;51.330;12.374;2023-08-07T01:42:15;14.50;1.00
12438;DHT22;6283;51.330;12.374;2023-08-07T01:44:40;14.50;1.00
12438;DHT22;6283;51.330;12.374;2023-08-07T01:47:07;14.60;1.00
12438;DHT22;6283;51.330;12.374;2023-08-07T01:49:32;14.40;1.00
12438;DHT22;6283;51.330;12.374;2023-08-07T01:51:58;14.40;1.00
12438;DHT22;6283;51.330;12.374;2023-08-07T01:54:23;14.40;1.00
12438;DHT22;6283;51.330;12.374;2023-08-07T01:56:49;14.40;1.00
12438;DHT22;6283;51.330;12.374;2023-08-07T01:59:15;14.40;1.00
12438;DHT22;6283;51.330;12.374;2023-08-07T02:01:40;14.50;1.00
12438;DHT22;6283;51.330;12.374;2023-08-07T02:04:06;14.40;1.00
12438;DHT22;6283;51.330;12.374;2023-08-07T02:06:32;14.50;1.00
12438;DHT22;6283;51.330;12.374;2023-08-07T02:08:58;14.40;1.00
12438;DHT22;6283;51.330;12.374;2023-08-07T02:11:23;14.40;1.00
12438;DHT22;6283;51.330;12.374;2023-08-07T02:13:49;14.50;1.00
12438;DHT22;6283;51.330;12.374;2023-08-07T02:16:14;14.40;1.00
12438;DHT22;6283;51.330;12.374;2023-08-07T02:18:40;14.40;1.00
12438;DHT22;6283;51.330;12.374;2023-08-07T02:21:06;14.40;1.00
12438;DHT22;6283;51.330;12.374;2023-08-07T02:23:31;14.30;1.00
12438;DHT22;6283;51.330;12.374;2023-08-07T02:25:57;14.40;1.00
12438;DHT22;6283;51.330;12.374;2023-08-07T02:28:22;14.40;1.00
12438;DHT22;6283;51.330;12.374;2023-08-07T02:30:48;14.30;1.00
12438;DHT22;6283;51.330;12.374;2023-08-07T02:33:16;14.30;1.00
12438;DHT22;6283;51.330;12.374;2023-08-07T02:35:42;14.30;1.00
12438;DHT22;6283;51.330;12.374;2023-08-07T02:38:08;14.30;1.00
12438;DHT22;6283;51.330;12.374;2023-08-07T02:40:33;14.20;1.00
12438;DHT22;6283;51.330;12.374;2023-08-07T02:42:59;14.40;1.00
12438;DHT22;6283;51.330;12.374;2023-08-07T02:45:25;14.10;1.00
12438;DHT22;6283;51.330;12.374;2023-08-07T02:47:50;14.20;1.00
12438;DHT22;6283;51.330;12.374;2023-08-07T02:50:16;14.30;1.00
12438;DHT22;6283;51.330;12.374;2023-08-07T02:52:42;14.20;1.00
12438;DHT22;6283;51.330;12.374;2023-08-07T02:55:08;14.20;1.00
12438;DHT22;6283;51.330;12.374;2023-08-07T02:57:34;14.20;1.00
12438;DHT22;6283;51.330;12.374;2023-08-07T03:00:00;14.20;1.00
12438;DHT22;6283;51.330;12.374;2023-08-07T03:02:26;14.30;1.00
12438;DHT22;6283;51.330;12.374;2023-08-07T03:04:51;14.30;1.00
12438;DHT22;6283;51.330;12.374;2023-08-07T03:07:17;14.10;1.00
12438;DHT22;6283;51.330;12.374;2023-08-07T03:09:45;14.30;1.00
12438;DHT22;6283;51.330;12.374;2023-08-07T03:12:12;14.30;1.00
12438;DHT22;6283;51.330;12.374;2023-08-07T03:14:38;14.30;1.00
12438;DHT22;6283;51.330;12.374;2023-08-07T03:17:03;14.30;1.00
12438;DHT22;6283;51.330;12.374;2023-08-07T03:19:29;14.20;1.00
12438;DHT22;6283;51.330;12.374;2023-08-07T03:21:55;14.20;1.00
12438;DHT22;6283;51.330;12.374;2023-08-07T03:24:21;14.20;1.00
12438;DHT22;6283;51.330;12.374;2023-08-07T03:26:46;14.40;1.00
12438;DHT22;6283;51.330;12.374;2023-08-07T03:29:12;14.30;1.00
12438;DHT22;6283;51.330;12.374;2023-08-07T03:31:38;14.30;1.00
12438;DHT22;6283;51.330;12.374;2023-08-07T03:34:04;14.30;1.00
12438;DHT22;6283;51.330;12.374;2023-08-07T03:36:30;14.30;1.00
12438;DHT22;6283;51.330;12.374;2023-08-07T03:38:55;14.50;1.00
12438;DHT22;6283;51.330;12.374;2023-08-07T03:41:21;14.30;1.00
12438;DHT22;6283;51.330;12.374;2023-08-07T03:43:47;14.30;1.00
12438;DHT22;6283;51.330;12.374;2023-08-07T03:46:12;14.40;1.00
12438;DHT22;6283;51.330;12.374;2023-08-07T03:48:38;14.30;1.00
12438;DHT22;6283;51.330;12.374;2023-08-07T03:51:07;14.30;1.00
12438;DHT22;6283;51.330;12.374;2023-08-07T03:53:33;14.20;1.00
12438;DHT22;6283;51.330;12.374;2023-08-07T03:55:59;14.30;1.00
12438;DHT22;6283;51.330;12.374;2023-08-07T03:58:25;14.30;1.00
12438;DHT22;6283;51.330;12.374;2023-08-07T04:00:51;14.30;1.00
12438;DHT22;6283;51.330;12.374;2023-08-07T04:03:18;14.40;1.00
12438;DHT22;6283;51.330;12.374;2023-08-07T04:05:43;14.40;1.00
12438;DHT22;6283;51.330;12.374;2023-08-07T04:08:09;14.20;1.00
12438;DHT22;6283;51.330;12.374;2023-08-07T04:10:35;14.20;1.00
12438;DHT22;6283;51.330;12.374;2023-08-07T04:13:00;14.20;1.00
12438;DHT22;6283;51.330;12.374;2023-08-07T04:15:26;14.10;1.00
12438;DHT22;6283;51.330;12.374;2023-08-07T04:17:52;14.10;1.00
12438;DHT22;6283;51.330;12.374;2023-08-07T04:20:17;14.10;1.00
12438;DHT22;6283;51.330;12.374;2023-08-07T04:22:43;14.10;1.00
12438;DHT22;6283;51.330;12.374;2023-08-07T04:25:10;14.10;1.00
12438;DHT22;6283;51.330;12.374;2023-08-07T04:27:36;14.10;1.00
12438;DHT22;6283;51.330;12.374;2023-08-07T04:30:01;14.30;1.00
12438;DHT22;6283;51.330;12.374;2023-08-07T04:32:27;14.30;1.00
12438;DHT22;6283;51.330;12.374;2023-08-07T04:34:52;14.10;1.00
12438;DHT22;6283;51.330;12.374;2023-08-07T04:37:18;14.10;1.00
12438;DHT22;6283;51.330;12.374;2023-08-07T04:39:44;14.00;1.00
12438;DHT22;6283;51.330;12.374;2023-08-07T04:42:09;14.20;1.00
12438;DHT22;6283;51.330;12.374;2023-08-07T04:44:35;14.20;1.00
12438;DHT22;6283;51.330;12.374;2023-08-07T04:47:01;14.20;1.00
12438;DHT22;6283;51.330;12.374;2023-08-07T04:49:27;14.00;1.00
12438;DHT22;6283;51.330;12.374;2023-08-07T04:51:53;14.20;1.00
12438;DHT22;6283;51.330;12.374;2023-08-07T04:54:18;14.20;1.00
12438;DHT22;6283;51.330;12.374;2023-08-07T04:56:44;14.20;1.00
12438;DHT22;6283;51.330;12.374;2023-08-07T04:59:10;14.30;1.00
12438;DHT22;6283;51.330;12.374;2023-08-07T05:01:36;14.20;1.00
12438;DHT22;6283;51.330;12.374;2023-08-07T05:04:02;14.20;1.00
12438;DHT22;6283;51.330;12.374;2023-08-07T05:06:27;14.40;1.00
12438;DHT22;6283;51.330;12.374;2023-08-07T05:08:53;14.40;1.00
12438;DHT22;6283;51.330;12.374;2023-08-07T05:11:19;14.20;1.00
12438;DHT22;6283;51.330;12.374;2023-08-07T05:13:45;14.20;1.00
12438;DHT22;6283;51.330;12.374;2023-08-07T05:16:11;14.20;1.00
12438;DHT22;6283;51.330;12.374;2023-08-07T05:18:37;14.30;1.00
12438;DHT22;6283;51.330;12.374;2023-08-07T05:21:02;14.30;1.00
12438;DHT22;6283;51.330;12.374;2023-08-07T05:23:28;14.30;1.00
12438;DHT22;6283;51.330;12.374;2023-08-07T05:25:54;14.40;1.00
12438;DHT22;6283;51.330;12.374;2023-08-07T05:28:19;14.40;1.00
12438;DHT22;6283;51.330;12.374;2023-08-07T05:30:45;14.40;1.00
12438;DHT22;6283;51.330;12.374;2023-08-07T05:33:11;14.40;1.00
12438;DHT22;6283;51.330;12.374;2023-08-07T05:35:38;14.40;1.00
12438;DHT22;6283;51.330;12.374;2023-08-07T05:38:04;14.30;1.00
12438;DHT22;6283;51.330;12.374;2023-08-07T05:40:29;14.60;1.00
12438;DHT22;6283;51.330;12.374;2023-08-07T05:42:55;14.40;1.00
12438;DHT22;6283;51.330;12.374;2023-08-07T05:45:21;14.40;1.00
12438;DHT22;6283;51.330;12.374;2023-08-07T05:47:46;14.30;1.00
12438;DHT22;6283;51.330;12.374;2023-08-07T05:50:12;14.50;1.00
12438;DHT22;6283;51.330;12.374;2023-08-07T05:52:37;14.50;1.00
12438;DHT22;6283;51.330;12.374;2023-08-07T05:55:04;14.50;1.00
12438;DHT22;6283;51.330;12.374;2023-08-07T05:57:30;14.50;1.00
12438;DHT22;6283;51.330;12.374;2023-08-07T05:59:55;14.60;1.00
12438;DHT22;6283;51.330;12.374;2023-08-07T06:02:21;14.60;1.00
12438;DHT22;6283;51.330;12.374;2023-08-07T06:04:46;14.70;1.00
12438;DHT22;6283;51.330;12.374;2023-08-07T06:07:12;14.70;1.00
12438;DHT22;6283;51.330;12.374;2023-08-07T06:09:38;14.70;1.00
12438;DHT22;6283;51.330;12.374;2023-08-07T06:12:04;14.70;1.00
12438;DHT22;6283;51.330;12.374;2023-08-07T06:14:29;14.70;1.00
12438;DHT22;6283;51.330;12.374;2023-08-07T06:16:55;14.70;1.00
12438;DHT22;6283;51.330;12.374;2023-08-07T06:19:23;14.70;1.00
12438;DHT22;6283;51.330;12.374;2023-08-07T06:21:49;14.70;1.00
12438;DHT22;6283;51.330;12.374;2023-08-07T06:24:14;14.70;1.00
12438;DHT22;6283;51.330;12.374;2023-08-07T06:26:40;14.70;1.00
12438;DHT22;6283;51.330;12.374;2023-08-07T06:29:06;14.80;1.00
12438;DHT22;6283;51.330;12.374;2023-08-07T06:31:31;14.80;1.00
12438;DHT22;6283;51.330;12.374;2023-08-07T06:33:57;14.80;1.00
12438;DHT22;6283;51.330;12.374;2023-08-07T06:36:25;14.80;1.00
12438;DHT22;6283;51.330;12.374;2023-08-07T06:38:51;14.90;1.00
12438;DHT22;6283;51.330;12.374;2023-08-07T06:41:16;14.90;1.00
12438;DHT22;6283;51.330;12.374;2023-08-07T06:43:42;14.90;1.00
12438;DHT22;6283;51.330;12.374;2023-08-07T06:46:07;14.90;1.00
12438;DHT22;6283;51.330;12.374;2023-08-07T06:48:33;15.00;1.00
12438;DHT22;6283;51.330;12.374;2023-08-07T06:50:59;15.10;1.00
12438;DHT22;6283;51.330;12.374;2023-08-07T06:53:24;15.10;1.00
12438;DHT22;6283;51.330;12.374;2023-08-07T06:55:50;15.20;1.00
12438;DHT22;6283;51.330;12.374;2023-08-07T06:58:16;15.30;1.00
12438;DHT22;6283;51.330;12.374;2023-08-07T07:00:42;15.20;99.90
12438;DHT22;6283;51.330;12.374;2023-08-07T07:03:08;15.30;1.00
12438;DHT22;6283;51.330;12.374;2023-08-07T07:05:35;15.40;99.90
12438;DHT22;6283;51.330;12.374;2023-08-07T07:08:01;15.30;99.90
12438;DHT22;6283;51.330;12.374;2023-08-07T07:10:26;15.40;99.90
12438;DHT22;6283;51.330;12.374;2023-08-07T07:12:52;15.40;99.90
12438;DHT22;6283;51.330;12.374;2023-08-07T07:15:18;15.40;1.40
12438;DHT22;6283;51.330;12.374;2023-08-07T07:17:43;15.50;99.90
12438;DHT22;6283;51.330;12.374;2023-08-07T07:20:09;15.50;99.90
12438;DHT22;6283;51.330;12.374;2023-08-07T07:22:35;15.60;99.90
12438;DHT22;6283;51.330;12.374;2023-08-07T07:25:01;15.60;99.90
12438;DHT22;6283;51.330;12.374;2023-08-07T07:27:27;15.70;99.90
12438;DHT22;6283;51.330;12.374;2023-08-07T07:29:52;15.80;99.90
12438;DHT22;6283;51.330;12.374;2023-08-07T07:32:18;15.80;99.90
12438;DHT22;6283;51.330;12.374;2023-08-07T07:34:44;15.70;99.90
12438;DHT22;6283;51.330;12.374;2023-08-07T07:37:10;15.70;99.90
12438;DHT22;6283;51.330;12.374;2023-08-07T07:39:36;15.70;99.90
12438;DHT22;6283;51.330;12.374;2023-08-07T07:42:01;15.80;99.90
12438;DHT22;6283;51.330;12.374;2023-08-07T07:44:28;15.80;99.90
12438;DHT22;6283;51.330;12.374;2023-08-07T07:46:54;15.90;99.90
12438;DHT22;6283;51.330;12.374;2023-08-07T07:49:20;16.00;99.90
12438;DHT22;6283;51.330;12.374;2023-08-07T07:51:45;16.00;99.90
12438;DHT22;6283;51.330;12.374;2023-08-07T07:54:12;16.10;99.90
12438;DHT22;6283;51.330;12.374;2023-08-07T07:56:38;16.10;99.90
12438;DHT22;6283;51.330;12.374;2023-08-07T07:59:04;16.20;16.50
12438;DHT22;6283;51.330;12.374;2023-08-07T08:01:29;16.30;1.00
12438;DHT22;6283;51.330;12.374;2023-08-07T08:03:55;16.30;1.00
12438;DHT22;6283;51.330;12.374;2023-08-07T08:06:21;16.50;1.00
12438;DHT22;6283;51.330;12.374;2023-08-07T08:08:46;16.60;1.00
12438;DHT22;6283;51.330;12.374;2023-08-07T08:11:13;16.70;1.00
12438;DHT22;6283;51.330;12.374;2023-08-07T08:13:38;16.80;99.90
12438;DHT22;6283;51.330;12.374;2023-08-07T08:16:05;17.00;1.00
12438;DHT22;6283;51.330;12.374;2023-08-07T08:18:31;17.00;1.00
12438;DHT22;6283;51.330;12.374;2023-08-07T08:20:57;17.00;1.00
12438;DHT22;6283;51.330;12.374;2023-08-07T08:23:22;17.10;99.90
12438;DHT22;6283;51.330;12.374;2023-08-07T08:25:49;17.10;99.90
12438;DHT22;6283;51.330;12.374;2023-08-07T08:28:14;17.20;99.90
12438;DHT22;6283;51.330;12.374;2023-08-07T08:30:41;17.10;99.90
12438;DHT22;6283;51.330;12.374;2023-08-07T08:33:07;17.20;99.90
12438;DHT22;6283;51.330;12.374;2023-08-07T08:35:38;17.20;1.00
12438;DHT22;6283;51.330;12.374;2023-08-07T08:38:03;17.20;1.00
12438;DHT22;6283;51.330;12.374;2023-08-07T08:40:30;17.20;1.00
12438;DHT22;6283;51.330;12.374;2023-08-07T08:42:56;17.30;1.00
12438;DHT22;6283;51.330;12.374;2023-08-07T08:45:26;17.40;1.00
12438;DHT22;6283;51.330;12.374;2023-08-07T08:47:55;17.50;1.00
12438;DHT22;6283;51.330;12.374;2023-08-07T08:50:23;17.60;1.00
12438;DHT22;6283;51.330;12.374;2023-08-07T08:52:51;17.70;1.00
12438;DHT22;6283;51.330;12.374;2023-08-07T08:55:20;17.70;1.00
12438;DHT22;6283;51.330;12.374;2023-08-07T08:57:46;17.80;1.00
12438;DHT22;6283;51.330;12.374;2023-08-07T09:00:14;17.90;1.00
12438;DHT22;6283;51.330;12.374;2023-08-07T09:02:47;17.90;1.00
12438;DHT22;6283;51.330;12.374;2023-08-07T09:05:15;17.80;1.00
12438;DHT22;6283;51.330;12.374;2023-08-07T09:07:41;17.80;1.00
12438;DHT22;6283;51.330;12.374;2023-08-07T09:10:12;17.70;1.00
12438;DHT22;6283;51.330;12.374;2023-08-07T09:12:41;17.70;1.00
12438;DHT22;6283;51.330;12.374;2023-08-07T09:15:09;17.70;1.00
12438;DHT22;6283;51.330;12.374;2023-08-07T09:17:40;17.70;1.00
12438;DHT22;6283;51.330;12.374;2023-08-07T09:20:09;17.70;1.00
12438;DHT22;6283;51.330;12.374;2023-08-07T09:22:40;17.70;1.00
12438;DHT22;6283;51.330;12.374;2023-08-07T09:25:07;17.80;1.00
12438;DHT22;6283;51.330;12.374;2023-08-07T09:27:33;17.80;1.00
12438;DHT22;6283;51.330;12.374;2023-08-07T09:29:59;18.00;1.00
12438;DHT22;6283;51.330;12.374;2023-08-07T09:32:25;18.00;1.00
12438;DHT22;6283;51.330;12.374;2023-08-07T09:34:51;18.10;1.00
12438;DHT22;6283;51.330;12.374;2023-08-07T09:37:17;18.10;1.00
12438;DHT22;6283;51.330;12.374;2023-08-07T09:39:43;18.10;1.00
12438;DHT22;6283;51.330;12.374;2023-08-07T09:42:16;18.20;99.90
12438;DHT22;6283;51.330;12.374;2023-08-07T09:44:43;18.30;99.90
12438;DHT22;6283;51.330;12.374;2023-08-07T09:47:17;18.30;99.90
12438;DHT22;6283;51.330;12.374;2023-08-07T09:49:45;18.30;99.90
12438;DHT22;6283;51.330;12.374;2023-08-07T09:52:13;18.40;99.90
12438;DHT22;6283;51.330;12.374;2023-08-07T09:54:40;18.60;99.90
12438;DHT22;6283;51.330;12.374;2023-08-07T09:57:06;18.70;99.90
12438;DHT22;6283;51.330;12.374;2023-08-07T09:59:33;18.80;99.90
12438;DHT22;6283;51.330;12.374;2023-08-07T10:02:03;18.80;99.90
12438;DHT22;6283;51.330;12.374;2023-08-07T10:04:29;18.80;99.90
12438;DHT22;6283;51.330;12.374;2023-08-07T10:06:56;18.70;99.90
12438;DHT22;6283;51.330;12.374;2023-08-07T10:09:22;18.70;99.90
12438;DHT22;6283;51.330;12.374;2023-08-07T10:11:49;18.50;99.90
12438;DHT22;6283;51.330;12.374;2023-08-07T10:14:16;18.30;99.90
12438;DHT22;6283;51.330;12.374;2023-08-07T10:16:42;18.20;99.90
12438;DHT22;6283;51.330;12.374;2023-08-07T10:19:08;18.00;99.90
12438;DHT22;6283;51.330;12.374;2023-08-07T10:21:36;17.80;1.00
12438;DHT22;6283;51.330;12.374;2023-08-07T10:24:07;17.70;1.00
12438;DHT22;6283;51.330;12.374;2023-08-07T10:26:34;17.50;1.00
12438;DHT22;6283;51.330;12.374;2023-08-07T10:29:02;17.30;1.00
12438;DHT22;6283;51.330;12.374;2023-08-07T10:31:30;17.10;1.00
12438;DHT22;6283;51.330;12.374;2023-08-07T10:33:57;17.20;1.00
12438;DHT22;6283;51.330;12.374;2023-08-07T10:36:23;17.20;1.00
12438;DHT22;6283;51.330;12.374;2023-08-07T10:38:50;17.20;1.00
12438;DHT22;6283;51.330;12.374;2023-08-07T10:41:18;17.20;1.00
12438;DHT22;6283;51.330;12.374;2023-08-07T10:43:46;17.10;1.00
12438;DHT22;6283;51.330;12.374;2023-08-07T10:46:16;17.20;1.00
12438;DHT22;6283;51.330;12.374;2023-08-07T10:48:45;17.20;1.00
12438;DHT22;6283;51.330;12.374;2023-08-07T10:51:16;17.40;1.00
12438;DHT22;6283;51.330;12.374;2023-08-07T10:53:44;17.50;1.00
12438;DHT22;6283;51.330;12.374;2023-08-07T10:56:31;17.70;1.00
12438;DHT22;6283;51.330;12.374;2023-08-07T10:58:57;17.80;1.00
12438;DHT22;6283;51.330;12.374;2023-08-07T11:04:14;18.30;1.00
12438;DHT22;6283;51.330;12.374;2023-08-07T11:06:41;18.50;1.00
12438;DHT22;6283;51.330;12.374;2023-08-07T11:09:09;18.60;1.00
12438;DHT22;6283;51.330;12.374;2023-08-07T11:11:55;18.60;1.00
12438;DHT22;6283;51.330;12.374;2023-08-07T11:14:21;18.50;99.90
12438;DHT22;6283;51.330;12.374;2023-08-07T11:16:48;18.60;99.90
12438;DHT22;6283;51.330;12.374;2023-08-07T11:19:14;18.70;99.90
12438;DHT22;6283;51.330;12.374;2023-08-07T11:21:41;18.70;99.90
12438;DHT22;6283;51.330;12.374;2023-08-07T11:24:07;18.80;99.90
12438;DHT22;6283;51.330;12.374;2023-08-07T11:26:33;19.00;99.90
12438;DHT22;6283;51.330;12.374;2023-08-07T11:28:59;19.00;99.90
12438;DHT22;6283;51.330;12.374;2023-08-07T11:31:25;19.10;99.90
12438;DHT22;6283;51.330;12.374;2023-08-07T11:34:00;19.10;99.90
12438;DHT22;6283;51.330;12.374;2023-08-07T11:36:28;19.10;99.90
12438;DHT22;6283;51.330;12.374;2023-08-07T11:38:54;19.10;99.90
12438;DHT22;6283;51.330;12.374;2023-08-07T11:41:20;19.20;99.90
12438;DHT22;6283;51.330;12.374;2023-08-07T11:43:45;19.30;99.90
12438;DHT22;6283;51.330;12.374;2023-08-07T11:46:13;19.30;99.90
12438;DHT22;6283;51.330;12.374;2023-08-07T11:48:40;19.30;99.90
12438;DHT22;6283;51.330;12.374;2023-08-07T11:51:06;19.30;99.90
12438;DHT22;6283;51.330;12.374;2023-08-07T11:53:33;19.30;99.90
12438;DHT22;6283;51.330;12.374;2023-08-07T11:56:02;19.20;99.90
12438;DHT22;6283;51.330;12.374;2023-08-07T11:58:40;19.20;99.90
12438;DHT22;6283;51.330;12.374;2023-08-07T12:01:10;19.30;99.90
12438;DHT22;6283;51.330;12.374;2023-08-07T12:03:37;19.50;99.90
12438;DHT22;6283;51.330;12.374;2023-08-07T12:06:07;19.50;99.90
12438;DHT22;6283;51.330;12.374;2023-08-07T12:08:40;19.50;99.90
12438;DHT22;6283;51.330;12.374;2023-08-07T12:11:11;19.60;99.90
12438;DHT22;6283;51.330;12.374;2023-08-07T12:13:39;19.60;99.90
12438;DHT22;6283;51.330;12.374;2023-08-07T12:16:05;19.50;99.90
12438;DHT22;6283;51.330;12.374;2023-08-07T12:18:31;19.50;99.90
12438;DHT22;6283;51.330;12.374;2023-08-07T12:21:02;19.40;99.90
12438;DHT22;6283;51.330;12.374;2023-08-07T12:23:29;19.30;99.90
12438;DHT22;6283;51.330;12.374;2023-08-07T12:25:55;19.40;99.90
12438;DHT22;6283;51.330;12.374;2023-08-07T12:28:20;19.60;99.90
12438;DHT22;6283;51.330;12.374;2023-08-07T12:30:47;19.90;99.90
12438;DHT22;6283;51.330;12.374;2023-08-07T12:33:13;20.00;99.90
12438;DHT22;6283;51.330;12.374;2023-08-07T12:35:40;20.00;99.90
12438;DHT22;6283;51.330;12.374;2023-08-07T12:38:06;20.00;99.90
12438;DHT22;6283;51.330;12.374;2023-08-07T12:40:32;19.80;99.90
12438;DHT22;6283;51.330;12.374;2023-08-07T12:43:01;19.60;99.90
12438;DHT22;6283;51.330;12.374;2023-08-07T12:45:27;19.60;99.90
12438;DHT22;6283;51.330;12.374;2023-08-07T12:47:52;19.50;99.90
12438;DHT22;6283;51.330;12.374;2023-08-07T12:50:18;19.40;99.90
12438;DHT22;6283;51.330;12.374;2023-08-07T12:52:44;19.40;99.90
12438;DHT22;6283;51.330;12.374;2023-08-07T12:55:10;19.30;99.90
12438;DHT22;6283;51.330;12.374;2023-08-07T12:57:37;19.20;99.90
12438;DHT22;6283;51.330;12.374;2023-08-07T13:00:03;19.30;99.90
12438;DHT22;6283;51.330;12.374;2023-08-07T13:02:30;19.20;99.90
12438;DHT22;6283;51.330;12.374;2023-08-07T13:04:55;19.20;99.90
12438;DHT22;6283;51.330;12.374;2023-08-07T13:07:22;19.20;99.90
12438;DHT22;6283;51.330;12.374;2023-08-07T13:09:48;19.00;99.90
12438;DHT22;6283;51.330;12.374;2023-08-07T13:12:13;19.00;99.90
12438;DHT22;6283;51.330;12.374;2023-08-07T13:14:39;18.90;99.90
12438;DHT22;6283;51.330;12.374;2023-08-07T13:17:05;18.90;99.90
12438;DHT22;6283;51.330;12.374;2023-08-07T13:19:30;19.00;99.90
12438;DHT22;6283;51.330;12.374;2023-08-07T13:21:56;19.20;99.90
12438;DHT22;6283;51.330;12.374;2023-08-07T13:24:21;19.60;99.90
12438;DHT22;6283;51.330;12.374;2023-08-07T13:26:47;19.80;99.90
12438;DHT22;6283;51.330;12.374;2023-08-07T13:29:14;19.90;99.90
12438;DHT22;6283;51.330;12.374;2023-08-07T13:31:40;19.80;99.90
12438;DHT22;6283;51.330;12.374;2023-08-07T13:34:11;19.70;99.90
12438;DHT22;6283;51.330;12.374;2023-08-07T13:36:38;19.30;99.90
12438;DHT22;6283;51.330;12.374;2023-08-07T13:39:07;18.40;99.90
12438;DHT22;6283;51.330;12.374;2023-08-07T13:41:34;17.70;1.00
12438;DHT22;6283;51.330;12.374;2023-08-07T13:44:00;17.10;99.90
12438;DHT22;6283;51.330;12.374;2023-08-07T13:46:26;16.70;1.00
12438;DHT22;6283;51.330;12.374;2023-08-07T13:48:51;16.20;99.90
12438;DHT22;6283;51.330;12.374;2023-08-07T13:51:20;15.90;1.00
12438;DHT22;6283;51.330;12.374;2023-08-07T13:53:46;15.60;99.90
12438;DHT22;6283;51.330;12.374;2023-08-07T13:56:11;15.40;99.90
12438;DHT22;6283;51.330;12.374;2023-08-07T13:58:43;15.30;1.00
12438;DHT22;6283;51.330;12.374;2023-08-07T14:01:09;15.20;1.00
12438;DHT22;6283;51.330;12.374;2023-08-07T14:03:34;15.20;1.00
12438;DHT22;6283;51.330;12.374;2023-08-07T14:06:01;15.20;1.00
12438;DHT22;6283;51.330;12.374;2023-08-07T14:08:27;15.20;1.00
12438;DHT22;6283;51.330;12.374;2023-08-07T14:10:53;15.30;1.00
12438;DHT22;6283;51.330;12.374;2023-08-07T14:13:19;15.30;1.00
12438;DHT22;6283;51.330;12.374;2023-08-07T14:15:44;15.30;1.00
12438;DHT22;6283;51.330;12.374;2023-08-07T14:18:10;15.50;1.00
12438;DHT22;6283;51.330;12.374;2023-08-07T14:20:37;15.60;1.00
12438;DHT22;6283;51.330;12.374;2023-08-07T14:23:03;15.50;1.00
12438;DHT22;6283;51.330;12.374;2023-08-07T14:25:28;15.40;1.00
12438;DHT22;6283;51.330;12.374;2023-08-07T14:27:54;15.30;1.00
12438;DHT22;6283;51.330;12.374;2023-08-07T14:30:20;15.10;1.00
12438;DHT22;6283;51.330;12.374;2023-08-07T14:32:45;14.90;1.00
12438;DHT22;6283;51.330;12.374;2023-08-07T14:35:13;14.70;1.00
12438;DHT22;6283;51.330;12.374;2023-08-07T14:37:40;14.50;1.00
12438;DHT22;6283;51.330;12.374;2023-08-07T14:40:06;14.40;1.00
12438;DHT22;6283;51.330;12.374;2023-08-07T14:42:32;14.30;1.00
12438;DHT22;6283;51.330;12.374;2023-08-07T14:44:58;14.30;1.00
12438;DHT22;6283;51.330;12.374;2023-08-07T14:47:23;14.30;1.00
12438;DHT22;6283;51.330;12.374;2023-08-07T14:49:50;14.30;1.00
12438;DHT22;6283;51.330;12.374;2023-08-07T14:52:15;14.40;1.00
12438;DHT22;6283;51.330;12.374;2023-08-07T14:54:41;14.50;1.00
12438;DHT22;6283;51.330;12.374;2023-08-07T14:57:06;14.70;1.00
12438;DHT22;6283;51.330;12.374;2023-08-07T14:59:32;14.90;1.00
12438;DHT22;6283;51.330;12.374;2023-08-07T15:01:58;15.10;1.00
12438;DHT22;6283;51.330;12.374;2023-08-07T15:04:23;15.30;1.00
12438;DHT22;6283;51.330;12.374;2023-08-07T15:06:49;15.40;1.00
12438;DHT22;6283;51.330;12.374;2023-08-07T15:09:16;15.50;1.00
12438;DHT22;6283;51.330;12.374;2023-08-07T15:11:46;15.70;1.00
12438;DHT22;6283;51.330;12.374;2023-08-07T15:14:12;15.70;1.00
12438;DHT22;6283;51.330;12.374;2023-08-07T15:16:38;16.00;1.00
12438;DHT22;6283;51.330;12.374;2023-08-07T15:19:03;16.30;1.00
12438;DHT22;6283;51.330;12.374;2023-08-07T15:21:32;16.50;1.00
12438;DHT22;6283;51.330;12.374;2023-08-07T15:23:58;16.50;99.90
12438;DHT22;6283;51.330;12.374;2023-08-07T15:26:24;16.30;99.90
12438;DHT22;6283;51.330;12.374;2023-08-07T15:28:49;16.10;99.90
12438;DHT22;6283;51.330;12.374;2023-08-07T15:31:15;16.00;99.90
12438;DHT22;6283;51.330;12.374;2023-08-07T15:33:41;15.80;99.90
12438;DHT22;6283;51.330;12.374;2023-08-07T15:36:07;15.70;99.90
12438;DHT22;6283;51.330;12.374;2023-08-07T15:38:33;15.60;99.90
12438;DHT22;6283;51.330;12.374;2023-08-07T15:41:01;15.60;99.90
12438;DHT22;6283;51.330;12.374;2023-08-07T15:43:27;15.50;99.90
12438;DHT22;6283;51.330;12.374;2023-08-07T15:45:52;15.50;99.90
12438;DHT22;6283;51.330;12.374;2023-08-07T15:48:19;15.40;99.90